Log in

Cypress Semiconductor Institutional Ownership (NASDAQ:CY)

$23.42
+0.04 (+0.17 %)
(As of 10/18/2019 09:16 AM ET)
Today's Range
$23.40
Now: $23.42
$23.47
50-Day Range
$22.89
MA: $23.27
$23.45
52-Week Range
$11.75
Now: $23.42
$23.48
Volume1.22 million shs
Average Volume4.01 million shs
Market Capitalization$8.65 billion
P/E Ratio20.19
Dividend Yield1.88%
Beta1.82

Institutional Ownership

Institutional Ownership Changes (13F Filings) for Cypress Semiconductor (NASDAQ:CY)

Institutional Ownership Percentage: 80.95%

Cypress Semiconductor (NASDAQ CY) Institutional Buying and Selling

Reporting DateHedge FundShares HeldMarket Value% of PortfolioQuarterly Change in SharesOwnership in Company
10/17/2019NEXT Financial Group Inc66,527$1.56M0.2%-31.6%0.018%
10/17/2019Envestnet Asset Management Inc.144,932$3.38M0.0%-56.0%0.039%
10/17/2019Optimum Investment Advisors65,356$1.53M0.5%-17.7%0.018%
10/16/2019Peregrine Capital Management LLC1,180,242$27.55M0.7%-1.2%0.320%
10/15/2019SeaCrest Wealth Management LLC34,576$0.81M0.2%-3.7%0.009%
10/15/2019Alpine Group USVI LLC50,000$1.17M0.3%N/A0.014%
10/11/2019Alpine Group USVI LLC50,000$1.17M0.3%N/A0.014%
10/10/2019Pacer Advisors Inc.136,074$3.18M0.1%-7.2%0.037%
10/9/2019Crossmark Global Holdings Inc.37,750$0.88M0.0%-2.5%0.010%
10/9/2019Polianta Ltd48,300$1.13M0.7%N/A0.013%
10/8/2019Alpha Windward LLC1,392$32K0.0%-95.5%0.000%
10/2/2019State of Alaska Department of Revenue65,666$1.53M0.0%+48.0%0.018%
9/24/2019Macquarie Group Ltd.116,992$2.60M0.0%-41.7%0.032%
9/13/2019Water Island Capital LLC473,732$10.54M0.5%N/A0.128%
9/11/2019River & Mercantile Asset Management LLP57,861$1.29M0.1%N/A0.016%
8/29/2019Hancock Whitney Corp16,825$0.37M0.0%-98.0%0.005%
8/26/2019Atria Investments LLC55,501$1.27M0.0%N/A0.015%
8/23/2019American International Group Inc.714,931$15.90M0.1%-1.7%0.194%
8/23/2019Treasurer of the State of North Carolina179,427$3.99M0.0%+17.0%0.049%
8/22/2019Natixis821,994$18.28M0.1%N/A0.223%
8/22/2019Hodges Capital Management Inc.341,645$7.60M0.8%-60.4%0.093%
8/17/2019Magnetar Financial LLC8,510,798$189.28M3.8%N/A2.304%
8/17/2019York Capital Management Global Advisors LLC1,897,985$42.21M1.7%N/A0.514%
8/17/2019Ladenburg Thalmann Financial Services Inc.64,350$1.43M0.0%-10.0%0.017%
8/17/2019Private Capital Group LLC5,042$79K0.0%-27.9%0.001%
8/16/2019First Manhattan Co.1,200$26K0.0%-52.0%0.000%
8/16/2019Eaton Vance Management240,688$5.35M0.0%-3.7%0.065%
8/16/2019Amundi Pioneer Asset Management Inc.954,180$33.28M0.0%+2.2%0.258%
8/16/2019United Services Automobile Association1,437,840$31.98M0.1%-37.5%0.389%
8/15/2019California Public Employees Retirement System819,067$18.22M0.0%-25.2%0.222%
8/15/2019Cambridge Investment Research Advisors Inc.72,909$1.62M0.0%-20.7%0.020%
8/15/2019MidWestOne Financial Group Inc.34,884$0.78M0.2%N/A0.009%
8/15/2019Auxier Asset Management13,725$0.31M0.1%+28.9%0.004%
8/15/2019Voloridge Investment Management LLC297,149$6.61M0.2%N/A0.080%
8/15/2019Waddell & Reed Financial Inc.7,978,395$177.44M0.4%-61.0%2.160%
8/15/2019grace capital20,000$0.45M0.2%+100.0%0.005%
8/15/2019River & Mercantile Asset Management LLP57,861$1.29M0.2%N/A0.016%
8/15/2019Nuveen Asset Management LLC2,097,224$46.64M0.0%+32.2%0.568%
8/15/2019Price T Rowe Associates Inc. MD1,838,581$40.89M0.0%-34.7%0.498%
8/15/2019Victory Capital Management Inc.604,482$13.44M0.0%-74.8%0.164%
8/15/2019UBS Asset Management Americas Inc.433,113$9.63M0.0%+17.4%0.117%
8/14/2019Point72 Hong Kong Ltd2,293$51K0.0%+73.8%0.001%
8/14/2019Cubist Systematic Strategies LLC33,636$0.75M0.0%-81.7%0.009%
8/14/2019Pentwater Capital Management LP10,220,000$227.29M2.4%N/A2.767%
8/14/2019California State Teachers Retirement System579,656$12.89M0.0%+2.2%0.157%
8/14/2019Marshall Wace LLP76,470$1.70M0.0%-90.6%0.021%
8/14/2019Alberta Investment Management Corp150,000$3.34M0.0%N/A0.041%
8/14/2019AQR Capital Management LLC54,481$1.21M0.0%-97.4%0.015%
8/14/2019Paloma Partners Management Co9,111$0.20M0.0%-94.6%0.002%
8/14/2019Man Group plc543,210$12.08M0.0%+422.0%0.147%
8/14/2019Kopp Investment Advisors LLC248,494$5.53M6.3%-21.3%0.067%
8/14/2019Balyasny Asset Management LLC1,009,002$22.44M0.1%N/A0.273%
8/14/2019Omni Partners LLP3,772,900$83.91M4.4%N/A1.022%
8/14/2019Vanguard Group Inc.35,095,987$780.54M0.0%-12.0%9.503%
8/14/2019Private Advisor Group LLC20,514$0.46M0.0%+10.4%0.006%
8/14/2019ETF Managers Group LLC12,022$0.27M0.0%+40.1%0.003%
8/14/2019Cardinal Capital Management LLC CT235,764$5.24M0.2%-69.3%0.064%
8/13/2019O Shares Investment Advisers LLC99,566$2.21M0.4%-0.6%0.027%
8/13/2019Tower Research Capital LLC TRC10,829$0.24M0.0%-56.3%0.003%
8/13/2019RMB Capital Management LLC87,625$1.95M0.0%-74.3%0.024%
8/13/2019US Bancorp DE84,446$1.88M0.0%-5.8%0.023%
8/13/2019ETRADE Capital Management LLC52,080$1.16M0.0%-27.3%0.014%
8/13/2019AXA1,320,483$29.37M0.1%-67.1%0.358%
8/13/2019United Capital Financial Advisers LLC134,244$2.99M0.0%-18.4%0.036%
8/13/2019Profund Advisors LLC50,796$1.13M0.1%-13.9%0.014%
8/13/2019BTG Pactual Global Asset Management Ltd105,000$2.34M0.6%N/A0.028%
8/13/2019Castleark Management LLC310,242$6.90M0.3%-39.7%0.084%
8/13/2019Maven Securities LTD10,000$0.22M0.1%N/A0.003%
8/13/2019Deprince Race & Zollo Inc.1,310,594$29.15M0.8%-23.3%0.355%
8/13/2019Parametric Portfolio Associates LLC971,255$21.60M0.0%-16.3%0.263%
8/13/2019MUFG Securities EMEA plc181,300$4.03M0.0%N/A0.049%
8/13/2019Grantham Mayo Van Otterloo & Co. LLC1,227,089$27.29M0.2%N/A0.332%
8/13/2019Impax Asset Management Group plc11,000$0.25M0.0%-95.1%0.003%
8/13/2019Natixis821,994$18.28M0.1%N/A0.223%
8/13/2019Vertex One Asset Management Inc.120,000$2.67M0.6%N/A0.032%
8/13/2019Athos Capital Ltd88,407$1.97M0.9%N/A0.024%
8/13/2019Northern Trust Corp2,934,427$65.26M0.0%+0.6%0.795%
8/13/2019Carlson Capital L P2,787,646$62M0.9%N/A0.755%
8/13/2019Canada Pension Plan Investment Board82,412$1.83M0.0%-89.5%0.022%
8/12/2019Public Employees Retirement System of Ohio178,539$3.97M0.0%-22.9%0.048%
8/12/2019Dynamic Capital Management Ltd24,275$0.54M2.7%N/A0.007%
8/12/2019Pacer Advisors Inc.146,672$3.26M0.1%+252.7%0.040%
8/12/2019Resources Investment Advisors LLC.1,409$31K0.0%-33.7%0.000%
8/12/2019Cadence Capital Management LLC9,037$0.20M0.0%-35.5%0.002%
8/12/2019Water Island Capital LLC473,732$10.54M0.5%N/A0.128%
8/12/2019ARS Investment Partners LLC28,348$0.63M0.1%-97.9%0.008%
8/12/2019Alpine Associates Management Inc.5,061,086$112.56M3.3%N/A1.370%
8/12/2019First Allied Advisory Services Inc.42,045$0.94M0.0%+7.2%0.011%
8/12/2019TT International333,953$7.43M0.6%N/A0.090%
8/12/2019Bahl & Gaynor Inc.124,439$2.77M0.0%-44.3%0.034%
8/12/2019M&T Bank Corp154,649$3.44M0.0%-5.7%0.042%
8/12/2019Capital Fund Management S.A.86,050$1.91M0.0%+433.4%0.023%
8/12/2019First Mercantile Trust Co.13,188$0.29M0.0%-31.0%0.004%
8/12/2019Keeley Teton Advisors LLC286,641$6.38M0.6%-15.0%0.078%
8/10/2019Quinn Opportunity Partners LLC197,000$4.38M0.5%N/A0.053%
8/10/2019Redhawk Wealth Advisors Inc.7,850$0.18M0.1%N/A0.002%
8/10/2019LPL Financial LLC133,356$2.97M0.0%-28.8%0.036%
8/10/2019Charles Schwab Investment Management Inc.2,848,117$63.34M0.0%+1.0%0.771%
8/10/2019Oppenheimer & Co. Inc.12,702$0.28M0.0%-93.6%0.003%
8/9/2019Ontario Teachers Pension Plan Board103,339$2.30M0.0%N/A0.028%
(Data available from 1/1/2016 forward)
This page was last updated on 10/18/2019 by MarketBeat.com Staff

Featured Article: Strangles

Enter your email address below to receive a concise daily summary of analysts' upgrades, downgrades and new coverage with MarketBeat.com's FREE daily email newsletter.

Yahoo Gemini Pixel